• Join FlightAware (Why Join?)
  • Login
  • US Flag 
05:16AM EST


 

Airport Tracker/Info


-or-


 

Live Flight TrackerFlight Track Log ✈ N508QS ✈ 08-Jun-2013 ✈ EGNS / IOM - KMKC

Flight Track Log - Related Links

Times and Time Zones

All times are in EDT time to prevent confusion due to time zone crossing. See the N508QS flight status page for this flight to view local times or setup timezone preferences in your user account.

Time Position Orientation Groundspeed Altitude Reporting Facility
EDT Latitude Longitude Course Direction KTS MPH feet Rate Location/Type
08:42AM 56.5654 -16.0912 295° West  Level Estimated
08:43AM 56.6008 -16.3160 286° West  Level Estimated
08:44AM 56.6358 -16.5412 286° West  Level Estimated
08:45AM 56.6704 -16.7668 286° West  Level Estimated
08:46AM 56.7045 -16.9928 285° West  Level Estimated
08:47AM 56.7383 -17.2193 285° West  Level Estimated
08:48AM 56.7716 -17.4461 285° West  Level Estimated
08:49AM 56.8045 -17.6734 285° West  Level Estimated
08:50AM 56.8371 -17.9010 285° West  Level Estimated
08:51AM 56.8691 -18.1291 285° West  Level Estimated
08:52AM 56.9008 -18.3575 284° West  Level Estimated
08:53AM 56.9321 -18.5863 284° West  Level Estimated
08:54AM 56.9629 -18.8155 284° West  Level Estimated
08:55AM 56.9934 -19.0451 284° West  Level Estimated
08:56AM 57.0233 -19.2750 284° West  Level Estimated
08:57AM 57.0529 -19.5054 283° West  Level Estimated
08:58AM 57.0821 -19.7360 283° West  Level Estimated
08:59AM 57.1108 -19.9671 283° West  Level Estimated
09:00AM 57.1391 -20.1985 283° West  Level Estimated
09:01AM 57.1670 -20.4302 283° West  Level Estimated
09:02AM 57.1945 -20.6623 282° West  Level Estimated
09:03AM 57.2215 -20.8948 282° West  Level Estimated
09:04AM 57.2481 -21.1276 282° West  Level Estimated
09:05AM 57.2743 -21.3607 282° West  Level Estimated
09:06AM 57.3000 -21.5941 282° West  Level Estimated
09:07AM 57.3253 -21.8279 281° West  Level Estimated
09:08AM 57.3502 -22.0619 281° West  Level Estimated
09:09AM 57.3746 -22.2963 281° West  Level Estimated
09:09AM 59.0000 -20.0000 296° West 496 571 40,000  Level ETMS Enhanced Traffic Management System
09:10AM 57.3986 -22.5310 281° West  Level Estimated
09:11AM 57.4221 -22.7661 281° West  Level Estimated
09:12AM 57.4453 -23.0014 280° West  Level Estimated
09:13AM 57.4679 -23.2370 280° West  Level Estimated
09:14AM 57.4902 -23.4729 280° West  Level Estimated
09:15AM 59.5274 -22.1985 294° West 496 571 40,000  Level FlightAware Transoceanic
09:16AM 59.5836 -22.4470 294° West 496 571 40,000  Level FlightAware Transoceanic
09:17AM 59.6395 -22.6963 294° West 496 571 40,000  Level FlightAware Transoceanic
09:18AM 59.6948 -22.9464 294° West 496 571 40,000  Level FlightAware Transoceanic
09:19AM 59.7496 -23.1974 293° West 496 571 40,000  Level FlightAware Transoceanic
09:20AM 59.8040 -23.4492 293° West 496 571 40,000  Level FlightAware Transoceanic
09:21AM 59.8579 -23.7017 293° West 496 571 40,000  Level FlightAware Transoceanic
09:22AM 59.9113 -23.9552 293° West 496 571 40,000  Level FlightAware Transoceanic
09:23AM 59.9642 -24.2094 292° West 496 571 40,000  Level FlightAware Transoceanic
09:24AM 60.0167 -24.4644 292° West 496 571 40,000  Level FlightAware Transoceanic
09:25AM 60.0686 -24.7202 292° West 496 571 40,000  Level FlightAware Transoceanic
09:26AM 60.1201 -24.9769 292° West 496 571 40,000  Level FlightAware Transoceanic
09:27AM 60.1710 -25.2343 292° West 496 571 40,000  Level FlightAware Transoceanic
09:28AM 60.2215 -25.4925 291° West 496 571 40,000  Level FlightAware Transoceanic
09:29AM 60.2714 -25.7516 291° West 496 571 40,000  Level FlightAware Transoceanic
09:30AM 60.3209 -26.0114 291° West 496 571 40,000  Level FlightAware Transoceanic
09:31AM 60.3698 -26.2720 291° West 496 571 40,000  Level FlightAware Transoceanic
09:32AM 60.4182 -26.5333 290° West 496 571 40,000  Level FlightAware Transoceanic
09:33AM 60.4661 -26.7955 290° West 496 571 40,000  Level FlightAware Transoceanic
09:34AM 60.5135 -27.0584 290° West 496 571 40,000  Level FlightAware Transoceanic
09:35AM 60.5604 -27.3221 290° West 496 571 40,000  Level FlightAware Transoceanic
09:36AM 60.6067 -27.5866 290° West 496 571 40,000  Level FlightAware Transoceanic
09:37AM 60.6525 -27.8518 289° West 496 571 40,000  Level FlightAware Transoceanic
09:38AM 60.6978 -28.1177 289° West 496 571 40,000  Level FlightAware Transoceanic
09:39AM 60.7426 -28.3844 289° West 496 571 40,000  Level FlightAware Transoceanic
09:40AM 60.7868 -28.6519 289° West 496 571 40,000  Level FlightAware Transoceanic
09:41AM 60.8306 -28.9200 288° West 496 571 40,000  Level FlightAware Transoceanic
09:42AM 60.8737 -29.1890 288° West 496 571 40,000  Level FlightAware Transoceanic
09:43AM 60.9164 -29.4586 288° West 496 571 40,000  Level FlightAware Transoceanic
09:44AM 60.9585 -29.7289 288° West 496 571 40,000  Level FlightAware Transoceanic
09:45AM 60.9973 -29.9820 288° West  Level FlightAware Approximate
09:46AM 61.0356 -30.2357 287° West  Level FlightAware Approximate
09:47AM 61.0306 -30.2190 286° West  Level FlightAware Approximate
09:48AM 61.0659 -30.4748 286° West  Level FlightAware Approximate
09:49AM 61.1007 -30.7312 286° West  Level FlightAware Approximate
09:50AM 61.1350 -30.9881 286° West  Level FlightAware Approximate
09:51AM 61.1688 -31.2456 285° West  Level FlightAware Approximate
09:52AM 61.2021 -31.5036 285° West  Level FlightAware Approximate
09:53AM 61.2350 -31.7622 285° West  Level FlightAware Approximate
09:54AM 61.2673 -32.0213 285° West  Level FlightAware Approximate
09:55AM 61.2992 -32.2810 284° West  Level FlightAware Approximate
09:56AM 61.3305 -32.5411 284° West  Level FlightAware Approximate
09:57AM 61.3614 -32.8018 284° West  Level FlightAware Approximate
09:58AM 61.3917 -33.0630 284° West  Level FlightAware Approximate
09:59AM 61.4216 -33.3247 284° West  Level FlightAware Approximate
10:00AM 61.4509 -33.5869 283° West  Level FlightAware Approximate
10:00AM 61.0000 -30.0000 286° West 515 593 40,000  Level ETMS Enhanced Traffic Management System
10:01AM 61.4798 -33.8496 283° West  Level FlightAware Approximate
10:02AM 61.5081 -34.1128 283° West  Level FlightAware Approximate
10:03AM 61.5359 -34.3764 283° West  Level FlightAware Approximate
10:04AM 61.5633 -34.6406 282° West  Level FlightAware Approximate
10:05AM 61.5901 -34.9051 282° West  Level FlightAware Approximate
10:06AM 61.7044 -36.1023 281° West 515 593 40,000  Level FlightAware Transoceanic
10:07AM 61.7310 -36.3993 281° West 515 593 40,000  Level FlightAware Transoceanic
10:08AM 61.7570 -36.6968 280° West 515 593 40,000  Level FlightAware Transoceanic
10:09AM 61.7824 -36.9949 280° West 515 593 40,000  Level FlightAware Transoceanic
10:10AM 61.8071 -37.2934 280° West 515 593 40,000  Level FlightAware Transoceanic
10:11AM 61.8311 -37.5924 280° West 515 593 40,000  Level FlightAware Transoceanic
10:12AM 61.8545 -37.8918 279° West 515 593 40,000  Level FlightAware Transoceanic
10:13AM 61.8773 -38.1917 279° West 515 593 40,000  Level FlightAware Transoceanic
10:14AM 61.8994 -38.4921 279° West 515 593 40,000  Level FlightAware Transoceanic
10:15AM 61.9208 -38.7929 278° West 515 593 40,000  Level FlightAware Transoceanic
10:16AM 61.9416 -39.0941 278° West 515 593 40,000  Level FlightAware Transoceanic
10:17AM 61.9617 -39.3956 278° West 515 593 40,000  Level FlightAware Transoceanic
10:18AM 61.9812 -39.6976 278° West 515 593 40,000  Level FlightAware Transoceanic
10:19AM 61.9981 -39.9694 278° West  Level FlightAware Approximate
10:20AM 62.0145 -40.2415 277° West  Level FlightAware Approximate
10:21AM 62.0075 -40.2120 274° West  Level FlightAware Approximate
10:22AM 62.0000 -40.0000 274° West 511 588 40,000  Level ETMS Enhanced Traffic Management System
10:22AM 62.0168 -40.4856 274° West  Level FlightAware Approximate
10:23AM 62.0254 -40.7595 274° West  Level FlightAware Approximate
10:24AM 62.0336 -41.0334 274° West  Level FlightAware Approximate
10:25AM 62.0412 -41.3075 274° West  Level FlightAware Approximate
10:26AM 62.0482 -41.5818 273° West  Level FlightAware Approximate
10:27AM 62.0547 -41.8562 273° West  Level FlightAware Approximate
10:28AM 62.0717 -42.7237 272° West 511 588 40,000  Level FlightAware Transoceanic
10:29AM 62.0764 -43.0270 272° West 511 588 40,000  Level FlightAware Transoceanic
10:30AM 62.0804 -43.3304 271° West 511 588 40,000  Level FlightAware Transoceanic
10:31AM 62.0837 -43.6339 271° West 511 588 40,000  Level FlightAware Transoceanic
10:32AM 62.0864 -43.9374 271° West 511 588 40,000  Level FlightAware Transoceanic
10:33AM 62.0884 -44.2410 271° West 511 588 40,000  Level FlightAware Transoceanic
10:34AM 62.0897 -44.5446 270° West 511 588 40,000  Level FlightAware Transoceanic
10:35AM 62.0904 -44.8482 270° West 511 588 40,000  Level FlightAware Transoceanic
10:36AM 62.0904 -45.1518 270° West 511 588 40,000  Level FlightAware Transoceanic
10:37AM 62.0897 -45.4554 270° West 511 588 40,000  Level FlightAware Transoceanic
10:38AM 62.0884 -45.7590 269° West 511 588 40,000  Level FlightAware Transoceanic
10:39AM 62.0864 -46.0626 269° West 511 588 40,000  Level FlightAware Transoceanic
10:40AM 62.0837 -46.3661 269° West 511 588 40,000  Level FlightAware Transoceanic
10:41AM 62.0804 -46.6696 269° West 511 588 40,000  Level FlightAware Transoceanic
10:42AM 62.0764 -46.9730 268° West 511 588 40,000  Level FlightAware Transoceanic
10:43AM 62.0717 -47.2763 268° West 511 588 40,000  Level FlightAware Transoceanic
10:44AM 62.0664 -47.5795 268° West 511 588 40,000  Level FlightAware Transoceanic
10:45AM 62.0604 -47.8826 267° West 511 588 40,000  Level FlightAware Transoceanic
10:46AM 62.0538 -48.1856 267° West 511 588 40,000  Level FlightAware Transoceanic
10:47AM 62.0465 -48.4884 267° West 511 588 40,000  Level FlightAware Transoceanic
10:48AM 62.0385 -48.7911 267° West 511 588 40,000  Level FlightAware Transoceanic
10:49AM 62.0299 -49.0936 266° West 511 588 40,000  Level FlightAware Transoceanic
10:50AM 62.0206 -49.3959 266° West 511 588 40,000  Level FlightAware Transoceanic
10:51AM 62.0106 -49.6981 266° West 511 588 40,000  Level FlightAware Transoceanic
10:52AM 62.0010 -49.9716 266° West  Level FlightAware Approximate
10:53AM 61.9909 -50.2450 266° West  Level FlightAware Approximate
10:54AM 61.9683 -50.2065 252° West  Level FlightAware Approximate
10:54AM 62.0000 -50.0000 252° West 496 571 40,000  Level ETMS Enhanced Traffic Management System
10:55AM 61.9279 -50.4664 252° West  Level FlightAware Approximate
10:56AM 61.8871 -50.7257 252° West  Level FlightAware Approximate
10:57AM 61.8457 -50.9843 251° West  Level FlightAware Approximate
10:58AM 61.8038 -51.2422 251° West  Level FlightAware Approximate
10:59AM 61.7615 -51.4993 251° West  Level FlightAware Approximate
11:00AM 61.5944 -52.4808 250° West 496 571 40,000  Level FlightAware Transoceanic
11:01AM 61.5466 -52.7523 250° West 496 571 40,000  Level FlightAware Transoceanic
11:02AM 61.4982 -53.0230 249° West 496 571 40,000  Level FlightAware Transoceanic
11:03AM 61.4493 -53.2929 249° West 496 571 40,000  Level FlightAware Transoceanic
11:04AM 61.3999 -53.5619 249° West 496 571 40,000  Level FlightAware Transoceanic
11:05AM 61.3500 -53.8300 249° West 496 571 40,000  Level FlightAware Transoceanic
11:06AM 61.2995 -54.0973 248° West 496 571 40,000  Level FlightAware Transoceanic
11:07AM 61.2485 -54.3638 248° West 496 571 40,000  Level FlightAware Transoceanic
11:08AM 61.1970 -54.6293 248° West 496 571 40,000  Level FlightAware Transoceanic
11:09AM 61.1450 -54.8940 248° West 496 571 40,000  Level FlightAware Transoceanic
11:10AM 61.0924 -55.1578 247° West 496 571 40,000  Level FlightAware Transoceanic
11:11AM 61.0394 -55.4208 247° West 496 571 40,000  Level FlightAware Transoceanic
11:12AM 60.9858 -55.6828 247° West 496 571 40,000  Level FlightAware Transoceanic
11:13AM 60.9317 -55.9440 247° West 496 571 40,000  Level FlightAware Transoceanic
11:14AM 60.8772 -56.2043 247° West 496 571 40,000  Level FlightAware Transoceanic
11:15AM 60.8221 -56.4637 246° West 496 571 40,000  Level FlightAware Transoceanic
11:15AM 60.9000 -56.0833 245° Southwest 420 483 40,000  Level Gander Center
11:16AM 60.7665 -56.7222 246° West 496 571 40,000  Level FlightAware Transoceanic
11:16AM 60.8333 -56.3667 244° Southwest 510 587 40,000  Level Gander Center
11:17AM 60.7104 -56.9798 246° West 496 571 40,000  Level FlightAware Transoceanic
11:17AM 60.7833 -56.6167 248° West 510 587 40,000  Level Gander Center
11:18AM 60.6539 -57.2365 246° West 496 571 40,000  Level FlightAware Transoceanic
11:18AM 60.7167 -56.8667 241° Southwest 500 575 40,000  Level Gander Center
11:19AM 60.5968 -57.4923 245° Southwest 496 571 40,000  Level FlightAware Transoceanic
11:19AM 60.6667 -57.1500 250° West 500 575 40,000  Level Gander Center
11:20AM 60.5393 -57.7472 245° Southwest 496 571 40,000  Level FlightAware Transoceanic
11:20AM 60.6167 -57.4167 249° West 510 587 40,000  Level Gander Center
11:21AM 60.5500 -57.6667 242° Southwest 510 587 40,000  Level Gander Center
11:21AM 60.5167 -57.8333 248° West 510 587 40,000  Level Gander Center
11:22AM 60.5000 -57.9333 251° West 510 587 40,000  Level Gander Center
11:23AM 60.4333 -58.1833 242° Southwest 510 587 40,000  Level Gander Center
11:23AM 60.3833 -58.3167 233° Southwest 510 587 40,000  Level Gander Center
11:24AM 60.3667 -58.4500 256° West 510 587 40,000  Level Gander Center
11:25AM 60.3167 -58.7000 248° West 510 587 40,000  Level Gander Center
11:26AM 60.2667 -58.9667 249° West 510 587 40,000  Level Gander Center
11:27AM 60.1833 -59.2167 236° Southwest 510 587 40,000  Level Gander Center
11:28AM 60.1333 -59.4833 249° West 500 575 40,000  Level Gander Center
11:28AM 60.0833 -59.6167 233° Southwest 500 575 40,000  Level Gander Center
11:29AM 60.0667 -59.7167 252° West 500 575 40,000  Level Gander Center
11:30AM 60.0167 -59.9500 247° West 500 575 40,000  Level Gander Center
11:31AM 59.9667 -60.2167 250° West 490 564 40,000  Level Gander Center
11:31AM 59.9500 -60.3500 256° West 490 564 40,000  Level Gander Center
11:32AM 59.9000 -60.6167 250° West 490 564 40,000  Level Gander Center
11:33AM 59.8833 -60.7500 256° West 490 564 40,000  Level Gander Center
11:34AM 59.8500 -60.9833 254° West 490 564 40,000  Level Gander Center
11:35AM 59.8000 -61.2500 250° West 490 564 40,000  Level Gander Center
11:35AM 59.7667 -61.4167 248° West 490 564 40,000  Level Gander Center
11:36AM 59.7500 -61.5167 252° West 490 564 40,000  Level Gander Center
11:37AM 59.7167 -61.8167 258° West 500 575 40,000  Level Gander Center
11:38AM 59.6667 -62.0333 246° West 500 575 40,000  Level Gander Center
11:38AM 59.6500 -62.2000 259° West 500 575 40,000  Level Gander Center
11:39AM 59.6000 -62.4667 250° West 490 564 40,000  Level Gander Center
11:40AM 59.5833 -62.5667 252° West 490 564 40,000  Level Gander Center
11:40AM 59.5667 -62.7000 256° West 490 564 40,000  Level Gander Center
11:41AM 59.5167 -62.9500 249° West 490 564 40,000  Level Gander Center
11:42AM 59.4833 -63.0500 237° Southwest 490 564 40,000  Level Gander Center
11:42AM 59.4667 -63.2167 259° West 490 564 40,000  Level Gander Center
11:43AM 59.4167 -63.4667 249° West 490 564 40,000  Level Gander Center
11:44AM 59.3500 -63.6833 239° Southwest 490 564 40,000  Level Montreal Center
11:45AM 59.2667 -63.9167 235° Southwest 500 575 40,000  Level Montreal Center
11:46AM 59.2500 -64.0167 252° West 500 575 40,000  Level Gander Center
11:46AM 59.1833 -64.1333 222° Southwest 490 564 40,000  Level Montreal Center
11:47AM 59.1000 -64.3333 231° Southwest 490 564 40,000  Level Montreal Center
11:48AM 59.0833 -64.4500 255° West 500 575 40,000  Level Gander Center
11:49AM 59.0000 -64.6833 235° Southwest 500 575 40,000  Level Gander Center
11:49AM 58.9333 -64.7500 207° Southwest 500 575 40,000  Level Montreal Center
11:50AM 58.8333 -64.9833 230° Southwest 500 575 40,000  Level Montreal Center
11:51AM 58.8333 -65.0833 270° West 500 575 40,000  Level Gander Center
11:52AM 58.7500 -65.3000 234° Southwest 500 575 40,000  Level Gander Center
11:52AM 58.6833 -65.4167 222° Southwest 490 564 40,000  Level Gander Center
11:53AM 58.6000 -65.6000 229° Southwest 490 564 40,000  Level Gander Center
11:54AM 58.5667 -65.7000 237° Southwest 490 564 40,000  Level Gander Center
11:55AM 58.4833 -65.8667 226° Southwest 490 564 40,000  Level Gander Center
11:55AM 58.4333 -66.0000 234° Southwest 490 564 40,000  Level Gander Center
11:56AM 58.3500 -66.2000 232° Southwest 490 564 40,000  Level Gander Center
11:57AM 58.3167 -66.3000 238° Southwest 490 564 40,000  Level Gander Center
11:57AM 58.2500 -66.3833 213° Southwest 480 552 40,000  Level Montreal Center
11:58AM 58.1500 -66.6000 229° Southwest 480 552 40,000  Level Montreal Center
11:59AM 58.1333 -66.6833 249° West 490 564 40,000  Level Gander Center
11:59AM 58.0667 -66.7833 218° Southwest 480 552 40,000  Level Montreal Center
12:00PM 58.0000 -66.9833 238° Southwest 490 564 40,000  Level Gander Center
12:01PM 57.9167 -67.1833 232° Southwest 490 564 40,000  Level Gander Center
12:02PM 57.8667 -67.2667 222° Southwest 490 564 40,000  Level Gander Center
12:02PM 57.8167 -67.3500 222° Southwest 480 552 40,000  Level Montreal Center
12:03PM 57.7333 -67.5333 230° Southwest 480 552 40,000  Level Montreal Center
12:04PM 57.6333 -67.7500 229° Southwest 480 552 40,000  Level Montreal Center
12:05PM 57.6000 -67.8500 238° Southwest 480 552 40,000  Level Gander Center
12:05PM 57.5500 -67.9167 216° Southwest 480 552 40,000  Level Montreal Center
12:06PM 57.4667 -68.1333 234° Southwest 480 552 40,000  Level Montreal Center
12:07PM 57.3667 -68.3000 222° Southwest 480 552 40,000  Level Montreal Center
12:08PM 57.3500 -68.4000 253° West 480 552 40,000  Level Gander Center
12:08PM 57.2833 -68.4833 214° Southwest 480 552 40,000  Level Montreal Center
12:09PM 57.1833 -68.6833 227° Southwest 480 552 40,000  Level Montreal Center
12:10PM 57.1000 -68.8667 230° Southwest 480 552 40,000  Level Montreal Center
12:11PM 57.0167 -69.0333 227° Southwest 480 552 40,000  Level Montreal Center
12:13PM 56.8333 -69.4000 228° Southwest 470 541 40,000  Level Montreal Center
12:14PM 56.7500 -69.6000 233° Southwest 470 541 40,000  Level Montreal Center
12:15PM 56.6500 -69.7667 223° Southwest 470 541 40,000  Level Montreal Center
12:16PM 56.5667 -69.9333 228° Southwest 470 541 40,000  Level Montreal Center
12:17PM 56.4667 -70.1333 228° Southwest 470 541 40,000  Level Montreal Center
12:18PM 56.4000 -70.3000 234° Southwest 470 541 40,000  Level Montreal Center
12:19PM 56.3000 -70.4667 223° Southwest 470 541 40,000  Level Montreal Center
12:20PM 56.2000 -70.6667 228° Southwest 470 541 40,000  Level Montreal Center
12:21PM 56.1167 -70.8333 228° Southwest 470 541 40,000  Level Montreal Center
12:22PM 56.0167 -70.9833 220° Southwest 460 529 40,000  Level Montreal Center
12:23PM 55.9167 -71.1500 223° Southwest 470 541 40,000  Level Montreal Center
12:24PM 55.8500 -71.3500 239° Southwest 470 541 40,000  Level Montreal Center
12:25PM 55.7500 -71.5000 220° Southwest 470 541 40,000  Level Montreal Center
12:26PM 55.6500 -71.6667 223° Southwest 470 541 40,000  Level Montreal Center
12:27PM 55.5667 -71.8167 226° Southwest 470 541 40,000  Level Montreal Center
12:28PM 55.4667 -72.0167 229° Southwest 470 541 40,000  Level Montreal Center
12:29PM 55.3833 -72.1667 226° Southwest 470 541 40,000  Level Montreal Center
12:30PM 55.2833 -72.3333 224° Southwest 470 541 40,000  Level Montreal Center
12:31PM 55.2000 -72.4833 226° Southwest 470 541 40,000  Level Montreal Center
12:32PM 55.1000 -72.6667 226° Southwest 470 541 40,000  Level Montreal Center
12:33PM 55.0000 -72.8167 221° Southwest 470 541 40,000  Level Montreal Center
12:34PM 54.9000 -73.0000 227° Southwest 480 552 40,000  Level Montreal Center
12:35PM 54.8000 -73.1500 221° Southwest 480 552 40,000  Level Montreal Center
12:36PM 54.7167 -73.3167 229° Southwest 480 552 40,000  Level Montreal Center
12:37PM 54.6333 -73.4833 229° Southwest 470 541 40,000  Level Montreal Center
12:38PM 54.5333 -73.6333 221° Southwest 470 541 40,000  Level Montreal Center
12:39PM 54.4333 -73.8000 224° Southwest 470 541 40,000  Level Montreal Center
12:40PM 54.3333 -73.9333 218° Southwest 470 541 40,000  Level Montreal Center
12:41PM 54.3000 -74.0167 236° Southwest 470 541 40,000  Level Gander Center
12:42PM 54.2167 -74.2000 232° Southwest 470 541 40,000  Level Gander Center
12:42PM 54.1500 -74.2667 210° Southwest 460 529 40,000  Level Montreal Center
12:43PM 54.0500 -74.4167 221° Southwest 460 529 40,000  Level Montreal Center
12:44PM 53.9500 -74.5667 221° Southwest 460 529 40,000  Level Montreal Center
12:45PM 53.9333 -74.6500 251° West 470 541 40,000  Level Gander Center
12:45PM 53.8667 -74.7333 216° Southwest 460 529 40,000  Level Montreal Center
12:46PM 53.7667 -74.8833 222° Southwest 480 552 40,000  Level Montreal Center
12:47PM 53.6667 -75.0333 222° Southwest 460 529 40,000  Level Montreal Center
12:48PM 53.5667 -75.1667 218° Southwest 460 529 40,000  Level Montreal Center
12:49PM 53.4833 -75.3167 227° Southwest 460 529 40,000  Level Montreal Center
12:50PM 53.3833 -75.4500 219° Southwest 450 518 40,000  Level Montreal Center
12:51PM 53.2833 -75.6000 222° Southwest 460 529 40,000  Level Montreal Center
12:52PM 53.2000 -75.7667 230° Southwest 460 529 40,000  Level Montreal Center
12:53PM 53.1000 -75.9000 219° Southwest 460 529 40,000  Level Montreal Center
12:54PM 53.0167 -76.0500 227° Southwest 460 529 40,000  Level Montreal Center
12:55PM 52.9167 -76.1833 219° Southwest 460 529 40,000  Level Montreal Center
12:56PM 52.8167 -76.3333 222° Southwest 460 529 40,000  Level Montreal Center
12:57PM 52.7333 -76.4667 224° Southwest 460 529 40,000  Level Montreal Center
12:58PM 52.6333 -76.6000 219° Southwest 460 529 40,000  Level Montreal Center
12:59PM 52.5333 -76.7667 225° Southwest 460 529 40,000  Level Montreal Center
01:00PM 52.4333 -76.9000 219° Southwest 460 529 40,000  Level Montreal Center
01:01PM 52.3500 -77.0333 224° Southwest 460 529 40,000  Level Montreal Center
01:02PM 52.2333 -77.1667 215° Southwest 460 529 40,000  Level Montreal Center
01:03PM 52.1333 -77.3333 226° Southwest 460 529 40,000  Level Montreal Center
01:04PM 52.0500 -77.4667 225° Southwest 460 529 40,000  Level Montreal Center
01:05PM 51.9500 -77.6000 219° Southwest 460 529 40,000  Level Montreal Center
01:06PM 51.8667 -77.7333 225° Southwest 460 529 40,000  Level Montreal Center
01:07PM 51.7667 -77.8667 220° Southwest 460 529 40,000  Level Montreal Center
01:08PM 51.6500 -78.0000 215° Southwest 460 529 40,000  Level Montreal Center
01:09PM 51.5667 -78.1333 225° Southwest 460 529 40,000  Level Montreal Center
01:10PM 51.4667 -78.2833 223° Southwest 460 529 40,000  Level Montreal Center
01:11PM 51.3667 -78.4167 220° Southwest 460 529 40,000  Level Montreal Center
01:12PM 51.2833 -78.5500 225° Southwest 460 529 40,000  Level Montreal Center
01:13PM 51.1667 -78.7000 219° Southwest 460 529 40,000  Level Montreal Center
01:14PM 51.1000 -78.8333 232° Southwest 470 541 40,000  Level Montreal Center
01:15PM 51.0000 -79.0167 229° Southwest 460 529 40,000  Level Montreal Center
01:16PM 50.9167 -79.1500 225° Southwest 460 529 40,000  Level Montreal Center
01:17PM 50.8167 -79.3000 223° Southwest 460 529 40,000  Level Montreal Center
01:18PM 50.7500 -79.4500 235° Southwest 460 529 40,000  Level Montreal Center
01:19PM 50.6500 -79.6000 224° Southwest 460 529 40,000  Level Montreal Center
01:20PM 50.5667 -79.7500 229° Southwest 460 529 40,000  Level Montreal Center
01:21PM 50.4833 -79.9000 229° Southwest 470 541 40,000  Level Montreal Center
01:22PM 50.3667 -80.0500 219° Southwest 460 529 40,000  Level Montreal Center
01:23PM 50.3000 -80.1833 232° Southwest 460 529 40,000  Level Montreal Center
01:24PM 50.2167 -80.3333 229° Southwest 460 529 40,000  Level Montreal Center
01:25PM 50.1167 -80.4833 224° Southwest 460 529 40,000  Level Montreal Center
01:26PM 50.0333 -80.6333 229° Southwest 470 541 40,000  Level Montreal Center
01:27PM 49.9333 -80.7833 224° Southwest 470 541 40,000  Level Montreal Center
01:28PM 49.8500 -80.9167 226° Southwest 470 541 40,000  Level Montreal Center
01:29PM 49.7500 -81.0667 224° Southwest 470 541 40,000  Level Montreal Center
01:30PM 49.6500 -81.2167 224° Southwest 470 541 40,000  Level Montreal Center
01:31PM 49.5667 -81.3667 229° Southwest 470 541 40,000  Level Montreal Center
01:32PM 49.4667 -81.5000 221° Southwest 470 541 40,000  Level Montreal Center
01:33PM 49.3833 -81.6500 230° Southwest 470 541 40,000  Level Montreal Center
01:34PM 49.2833 -81.8000 224° Southwest 470 541 40,000  Level Montreal Center
01:35PM 49.2000 -81.9333 226° Southwest 470 541 40,000  Level Montreal Center
01:36PM 49.1000 -82.0833 225° Southwest 470 541 40,000  Level Montreal Center
01:37PM 49.0167 -82.2167 226° Southwest 460 529 40,000  Level Montreal Center
01:38PM 48.9167 -82.3667 225° Southwest 460 529 40,000  Level Montreal Center
01:39PM 48.8333 -82.4833 223° Southwest 460 529 40,000  Level Montreal Center
01:40PM 48.7333 -82.6500 228° Southwest 460 529 40,000  Level Montreal Center
01:41PM 48.6500 -82.7667 223° Southwest 460 529 40,000  Level Montreal Center
01:42PM 48.5500 -82.9000 221° Southwest 470 541 40,000  Level Montreal Center
01:43PM 48.4500 -83.0500 225° Southwest 470 541 40,000  Level Montreal Center
01:44PM 48.3667 -83.1833 227° Southwest 460 529 40,000  Level Montreal Center
01:45PM 48.2667 -83.3167 222° Southwest 460 529 40,000  Level Montreal Center
01:46PM 48.1833 -83.4500 227° Southwest 460 529 40,000  Level Montreal Center
01:47PM 48.1000 -83.5167 208° Southwest 470 541 40,000  Level Toronto Center
01:48PM 48.0167 -83.6667 230° Southwest 470 541 40,000  Level Toronto Center
01:49PM 47.9167 -83.8000 222° Southwest 470 541 40,000  Level Toronto Center
01:50PM 47.8167 -83.9500 225° Southwest 470 541 40,000  Level Toronto Center
01:51PM 47.7167 -84.0667 218° Southwest 470 541 40,000  Level Toronto Center
01:52PM 47.6333 -84.2000 227° Southwest 480 552 40,000  Level Toronto Center
01:53PM 47.5333 -84.3500 225° Southwest 480 552 40,000  Level Toronto Center
01:54PM 47.4333 -84.4667 218° Southwest 470 541 40,000  Level Toronto Center
01:55PM 47.3500 -84.6000 227° Southwest 470 541 40,000  Level Toronto Center
01:56PM 47.2333 -84.7333 218° Southwest 470 541 40,000  Level Toronto Center
01:57PM 47.1500 -84.8833 231° Southwest 470 541 40,000  Level Toronto Center
01:58PM 47.0667 -85.0000 224° Southwest 470 541 40,000  Level Toronto Center
01:59PM 46.9500 -85.1333 218° Southwest 470 541 40,000  Level Toronto Center
02:00PM 46.8667 -85.2667 228° Southwest 470 541 40,000  Level Toronto Center
02:01PM 46.7500 -85.4000 218° Southwest 470 541 40,000  Level Toronto Center
02:02PM 46.6667 -85.5167 224° Southwest 470 541 40,000  Level Toronto Center
02:03PM 46.5833 -85.6500 228° Southwest 470 541 40,000  Level Toronto Center
02:03PM 46.5619 -85.6750 219° Southwest 469 540 40,000  Level Minneapolis Center
02:04PM 46.4736 -85.8161 228° Southwest 473 544 40,000  Level Minneapolis Center
02:05PM 46.3872 -85.9575 228° Southwest 473 544 40,000  Level Minneapolis Center
02:06PM 46.2981 -86.0972 227° Southwest 474 545 40,000  Level Minneapolis Center
02:07PM 46.2092 -86.2403 228° Southwest 478 550 40,000  Level Minneapolis Center
02:08PM 46.1214 -86.3789 228° Southwest 474 545 40,000  Level Minneapolis Center
02:10PM 46.0144 -86.5472 228° Southwest 478 550 40,000  Level Minneapolis Center
02:11PM 45.9261 -86.6858 228° Southwest 475 547 40,000  Level Minneapolis Center
02:12PM 45.8389 -86.8206 227° Southwest 466 536 40,000  Level Minneapolis Center
02:13PM 45.7519 -86.9575 228° Southwest 468 539 40,000  Level Minneapolis Center
02:14PM 45.6633 -87.0944 227° Southwest 471 542 40,000  Level Minneapolis Center
02:15PM 45.5750 -87.2306 227° Southwest 472 543 40,000  Level Minneapolis Center
02:16PM 45.4844 -87.3669 227° Southwest 475 547 40,000  Level Minneapolis Center
02:17PM 45.3764 -87.5319 227° Southwest 476 548 40,000  Level Minneapolis Center
02:18PM 45.2872 -87.6664 227° Southwest 473 544 40,000  Level Minneapolis Center
02:19PM 45.1975 -87.8025 227° Southwest 474 545 40,000  Level Minneapolis Center
02:20PM 45.1069 -87.9381 227° Southwest 477 549 40,000  Level Minneapolis Center
02:21PM 45.0175 -88.0700 226° Southwest 469 540 40,000  Level Minneapolis Center
02:22PM 44.9289 -88.2019 227° Southwest 466 536 40,000  Level Minneapolis Center
02:23PM 44.8339 -88.3425 226° Southwest 470 541 40,000  Level Minneapolis Center
02:24PM 44.7275 -88.4983 226° Southwest 474 545 40,000  Level Minneapolis Center
02:25PM 44.6364 -88.6306 226° Southwest 473 544 40,000  Level Minneapolis Center
02:26PM 44.5300 -88.7858 226° Southwest 475 547 40,000  Level Minneapolis Center
02:27PM 44.4386 -88.9167 226° Southwest 473 544 40,000  Level Minneapolis Center
02:28PM 44.3467 -89.0497 226° Southwest 475 547 40,000  Level Minneapolis Center
02:29PM 44.2394 -89.2044 226° Southwest 476 548 40,000  Level Minneapolis Center
02:30PM 44.1503 -89.3319 226° Southwest 467 537 40,000  Level Minneapolis Center
02:31PM 44.0597 -89.4606 226° Southwest 466 536 40,000  Level Minneapolis Center
02:32PM 43.9692 -89.5875 225° Southwest 464 534 40,000  Level Minneapolis Center
02:33PM 43.8794 -89.7144 226° Southwest 463 533 40,000  Level Minneapolis Center
02:34PM 43.8486 -89.7564 224° Southwest 464 534 40,000  Level Chicago Center
02:35PM 43.7586 -89.8831 225° Southwest 463 533 40,000  Level Chicago Center
02:35PM 43.6847 -89.9858 225° Southwest 456 525 40,000  Level Minneapolis Center
02:36PM 43.5939 -90.1094 225° Southwest 457 526 40,000  Level Minneapolis Center
02:37PM 43.5789 -90.1319 227° Southwest 459 528 40,000  Level Chicago Center
02:38PM 43.4861 -90.2578 225° Southwest 467 537 40,000  Level Chicago Center
02:39PM 43.3817 -90.4000 225° Southwest 467 537 40,000  Level Chicago Center
02:40PM 43.2933 -90.5228 225° Southwest 458 527 40,000  Level Chicago Center
02:41PM 43.2028 -90.6447 224° Southwest 459 528 40,000  Level Chicago Center
02:42PM 43.1286 -90.7433 224° Southwest 464 534 40,000  Level Minneapolis Center
02:42PM 43.1092 -90.7692 224° Southwest 469 540 40,000  Level Chicago Center
02:43PM 43.0194 -90.8919 225° Southwest 463 533 40,000  Level Chicago Center
02:44PM 42.9086 -91.0400 224° Southwest 466 536 40,000  Level Chicago Center
02:45PM 42.8175 -91.1625 225° Southwest 462 532 40,000  Level Chicago Center
02:46PM 42.7250 -91.2850 224° Southwest 463 533 40,000  Level Chicago Center
02:47PM 42.6300 -91.4089 224° Southwest 468 539 40,000  Level Chicago Center
02:48PM 42.5364 -91.5331 224° Southwest 468 539 40,000  Level Chicago Center
02:49PM 42.4444 -91.6533 224° Southwest 460 529 40,000  Level Chicago Center
02:50PM 42.3522 -91.7736 224° Southwest 461 531 40,000  Level Chicago Center
02:51PM 42.2347 -91.9069 220° Southwest 463 533 40,000  Level Chicago Center
02:52PM 42.1242 -91.9917 210° Southwest 460 529 40,000  Level Chicago Center
02:53PM 42.0144 -92.0792 211° Southwest 461 531 40,000  Level Chicago Center
02:54PM 41.9067 -92.1617 210° Southwest 451 519 40,000  Level Chicago Center
02:55PM 41.7983 -92.2486 211° Southwest 456 525 40,000 -120 Level Chicago Center
02:56PM 41.6892 -92.3319 210° Southwest 455 524 39,800 -720 Descending Chicago Center
02:57PM 41.5572 -92.4353 210° Southwest 461 531 38,600 -1,140 Descending Chicago Center
02:58PM 41.4406 -92.5250 210° Southwest 456 525 37,500 -780 Descending Chicago Center
02:59PM 41.3319 -92.6075 210° Southwest 454 522 37,000 -300 Descending Chicago Center
03:00PM 41.2239 -92.6914 210° Southwest 454 522 37,000 -720 Level Chicago Center
03:01PM 41.1136 -92.7744 210° Southwest 459 528 35,600 -1,080 Descending Chicago Center
03:02PM 41.0022 -92.8594 210° Southwest 465 535 34,800 -960 Descending Chicago Center
03:04PM 40.8667 -92.9597 209° Southwest 470 541 33,700 -1,020 Descending Chicago Center
03:05PM 40.7544 -93.0475 211° Southwest 474 545 32,800 -840 Descending Chicago Center
03:06PM 40.6436 -93.1297 209° Southwest 466 536 32,000 -420 Descending Chicago Center
03:07PM 40.5306 -93.2153 210° Southwest 473 544 32,000 -900 Level Chicago Center
03:08PM 40.3950 -93.3144 209° Southwest 476 548 30,100 -2,160 Descending Kansas City Center
03:09PM 40.2842 -93.3967 210° Southwest 468 539 27,400 -2,520 Descending Kansas City Center
03:10PM 40.1781 -93.4744 209° Southwest 451 519 24,900 -2,400 Descending Kansas City Center
03:11PM 40.0753 -93.5494 209° Southwest 434 499 22,500 -2,520 Descending Kansas City Center
03:12PM 39.9575 -93.6364 210° Southwest 413 475 19,700 -2,520 Descending Kansas City Center
03:13PM 39.8611 -93.7058 209° Southwest 405 466 17,400 -2,220 Descending Kansas City Center
03:14PM 39.7633 -93.7772 209° Southwest 389 448 15,200 -2,100 Descending Kansas City Center
03:15PM 39.6808 -93.8375 209° Southwest 357 411 13,200 -1,740 Descending Kansas City Center
03:16PM 39.6086 -93.9167 220° Southwest 303 349 11,700 -1,560 Descending Kansas City Center
03:17PM 39.5689 -93.9989 238° Southwest 279 321 10,000 -1,860 Descending Kansas City Center
03:18PM 39.5244 -94.0903 238° Southwest 271 312 8,000 -1,620 Descending Kansas City Center
03:19PM 39.4903 -94.1672 240° Southwest 257 296 6,700 -1,500 Descending Kansas City Center
03:20PM 39.4553 -94.2489 241° Southwest 233 268 5,000 -1,380 Descending Kansas City Center
03:21PM 39.4208 -94.3114 235° Southwest 223 257 4,000 -480 Descending Kansas City Center
03:22PM 39.3686 -94.3767 224° Southwest 234 269 4,000  Level Kansas City Center
03:23PM 39.3253 -94.4317 224° Southwest 227 261 4,000 -240 Level Kansas City Center
03:24PM 39.2847 -94.4836 225° Southwest 216 249 3,600 -420 Descending Kansas City Center
03:25PM 39.2394 -94.5414 225° Southwest 205 236 3,200 -540 Descending Kansas City Center
03:26PM 39.2025 -94.5700 211° Southwest 155 178 2,500 -960 Descending Kansas City Center
03:27PM 39.1631 -94.5811 192° South 129 148 1,300 -720 Descending Kansas City Center
03:28PM 39.1353 -94.5894 193° South 125 144 1,100 -240 Descending Kansas City Center
03:30PM 39.1167 -94.5833 180° South  Level FlightAware Approximate